Owosso, Michigan
Current Conditions -  °F | °C
As of 8:54 PM on Wednesday 26 Nov 2014 (Local Time) from KRNP Reporting Station
Overcast Overcast  
Wind Chill: 22°   Ceiling: 4100
Heat Index: 29°   Visibility: 10mi
Dew Point: 25°   Wind: 7mph
Humidity: 85%   Direction: 360°N
Pressure: 30.1"   Gusts: NA
Location:  43°N, 84.18°W
Report Text: KRNP 270154Z AUTO 36006KT 10SM SCT014 OVC041 M02/M04 A3010 RMK AO2 T10161038
Loading
Personal Weather Stations






























Interactive Weather Map New forecast layout! Learn more

10-Day Weather Forecast

Advertisements
Track Severe Weather on mobile